El Rito, Colorado
Current Conditions -  °F | °C
As of 6:52 PM on Sunday 25 Jan 2015 (Local Time) from KALS Reporting Station
Clear Clear  
Wind Chill: 26°   Ceiling: Unl
Heat Index: 32°   Visibility: 10mi
Dew Point: 18°   Wind: 6mph
Humidity: 56%   Direction: 330°NNW
Pressure: 30.32"   Gusts: NA
Location:  37.1568°N, 105.289°W
Report Text: KALS 260152Z AUTO 33005KT 10SM CLR 00/M08 A3032 RMK AO2 SLP321 T00001078
Loading
Personal Weather Stations






























Interactive Weather Map New forecast layout! Learn more

10-Day Weather Forecast

Advertisements
Track Severe Weather on mobile